Time;durP1;ratioP1;P1;durP2;ratioP2;P2;SDS_P1;SDS_P2;PMS_P1;PMS_P2;Temp;Humidity;BMP_temperature;BMP_pressure;BME280_temperature;BME280_humidity;BME280_pressure;Samples;Min_cycle;Max_cycle;Signal;HPM_P1;HPM_P2
2021/03/16 00:02:09;;;;;;;12.90;1.10;;;;;;;;;;5039218;28;20037;-59
2021/03/16 00:04:35;;;;;;;14.77;2.00;;;;;;;;;;5045405;28;20065;-60
2021/03/16 00:07:04;;;;;;;19.35;1.63;;;;;;;;;;5027761;28;20088;-59
2021/03/16 00:09:31;;;;;;;17.85;1.75;;;;;;;;;;5024781;28;20052;-60
2021/03/16 00:11:57;;;;;;;14.48;2.03;;;;;;;;;;5032906;28;20055;-59
2021/03/16 00:14:23;;;;;;;18.17;1.83;;;;;;;;;;5045581;28;20043;-59
2021/03/16 00:16:51;;;;;;;8.82;1.20;;;;;;;;;;5033644;28;20073;-61
2021/03/16 00:19:16;;;;;;;16.88;1.33;;;;;;;;;;5044657;28;20045;-60
2021/03/16 00:21:42;;;;;;;19.55;1.45;;;;;;;;;;5042460;28;20043;-59
2021/03/16 00:24:11;;;;;;;7.47;1.00;;;;;;;;;;5045173;28;20029;-59
2021/03/16 00:26:38;;;;;;;18.75;1.40;;;;;;;;;;5037647;28;20102;-60
2021/03/16 00:29:04;;;;;;;16.13;1.27;;;;;;;;;;5028620;28;20033;-59
2021/03/16 00:31:30;;;;;;;15.18;1.33;;;;;;;;;;5024510;28;20419;-59
2021/03/16 00:33:56;;;;;;;13.23;1.63;;;;;;;;;;5027452;28;20037;-59
2021/03/16 00:36:22;;;;;;;8.88;0.95;;;;;;;;;;5018935;28;20064;-59
2021/03/16 00:38:48;;;;;;;15.30;1.70;;;;;;;;;;5038951;28;20041;-59
2021/03/16 00:41:14;;;;;;;16.10;1.27;;;;;;;;;;5045677;28;20118;-58
2021/03/16 00:43:41;;;;;;;15.80;1.15;;;;;;;;;;5031461;28;20056;-59
2021/03/16 00:46:07;;;;;;;10.23;1.15;;;;;;;;;;5044100;28;20043;-59
2021/03/16 00:48:33;;;;;;;8.70;1.55;;;;;;;;;;5020635;28;20408;-59
2021/03/16 00:50:59;;;;;;;5.47;1.00;;;;;;;;;;5023281;28;20053;-58
2021/03/16 00:53:25;;;;;;;12.25;1.58;;;;;;;;;;5019082;28;20045;-58
2021/03/16 00:55:51;;;;;;;12.70;1.17;;;;;;;;;;5005637;28;20037;-59
2021/03/16 00:58:24;;;;;;;9.23;1.52;;;;;;;;;;5026333;28;20053;-59
2021/03/16 01:00:51;;;;;;;8.98;1.00;;;;;;;;;;5022570;28;20029;-59
2021/03/16 01:03:17;;;;;;;6.03;1.05;;;;;;;;;;5037405;28;20125;-58
2021/03/16 01:05:43;;;;;;;16.33;1.30;;;;;;;;;;5019863;28;20053;-59
2021/03/16 01:08:09;;;;;;;6.55;1.10;;;;;;;;;;5016913;28;20081;-59
2021/03/16 01:10:36;;;;;;;16.58;1.38;;;;;;;;;;5020977;28;20179;-59
2021/03/16 01:13:02;;;;;;;12.55;1.20;;;;;;;;;;5015930;28;20057;-59
2021/03/16 01:15:28;;;;;;;18.85;1.35;;;;;;;;;;5019445;28;20208;-60
2021/03/16 01:17:55;;;;;;;10.93;1.20;;;;;;;;;;5021823;28;20116;-59
2021/03/16 01:20:24;;;;;;;6.80;0.95;;;;;;;;;;5016513;28;20041;-59
2021/03/16 01:22:50;;;;;;;10.68;1.48;;;;;;;;;;5021023;28;20052;-59
2021/03/16 01:25:16;;;;;;;11.43;2.25;;;;;;;;;;5033720;28;20678;-60
2021/03/16 01:27:42;;;;;;;10.68;1.27;;;;;;;;;;5041722;28;20033;-59
2021/03/16 01:30:09;;;;;;;10.20;1.00;;;;;;;;;;5024166;28;20069;-59
2021/03/16 01:32:36;;;;;;;11.68;1.30;;;;;;;;;;5021856;28;20034;-59
2021/03/16 01:35:04;;;;;;;13.25;1.25;;;;;;;;;;5017853;28;20045;-59
2021/03/16 01:37:31;;;;;;;9.60;1.30;;;;;;;;;;5023180;28;20119;-60
2021/03/16 01:39:57;;;;;;;7.22;0.80;;;;;;;;;;5026896;28;20881;-59
2021/03/16 01:42:23;;;;;;;15.23;1.23;;;;;;;;;;5041426;28;20101;-59
2021/03/16 01:44:49;;;;;;;10.13;1.00;;;;;;;;;;5027220;28;20055;-59
2021/03/16 01:47:16;;;;;;;9.23;1.30;;;;;;;;;;5040822;28;20052;-59
2021/03/16 01:49:42;;;;;;;10.25;0.90;;;;;;;;;;5036306;28;20048;-59
2021/03/16 01:52:10;;;;;;;7.15;0.95;;;;;;;;;;5023396;28;20038;-59
2021/03/16 01:54:36;;;;;;;13.35;0.98;;;;;;;;;;5020914;28;20590;-59
2021/03/16 01:57:03;;;;;;;9.45;0.65;;;;;;;;;;5021677;28;20042;-60
2021/03/16 01:59:30;;;;;;;15.02;1.23;;;;;;;;;;5020659;28;20111;-60
2021/03/16 02:01:56;;;;;;;10.60;1.05;;;;;;;;;;5017911;28;20034;-60
2021/03/16 02:04:22;;;;;;;12.60;1.30;;;;;;;;;;5021113;28;20070;-60
2021/03/16 02:06:52;;;;;;;11.15;1.27;;;;;;;;;;5035802;28;20052;-60
2021/03/16 02:09:26;;;;;;;4.38;0.90;;;;;;;;;;5046476;28;20056;-61
2021/03/16 02:11:58;;;;;;;8.20;0.85;;;;;;;;;;5041683;28;20084;-61
2021/03/16 02:14:26;;;;;;;9.77;1.48;;;;;;;;;;5047072;28;20041;-61
2021/03/16 02:16:54;;;;;;;6.75;1.00;;;;;;;;;;5042149;28;20129;-59
2021/03/16 02:19:26;;;;;;;12.88;1.10;;;;;;;;;;5046217;28;20118;-59
2021/03/16 02:21:52;;;;;;;13.85;1.27;;;;;;;;;;5018744;28;20045;-59
2021/03/16 02:24:27;;;;;;;11.25;1.10;;;;;;;;;;5007037;28;20033;-59
2021/03/16 02:27:04;;;;;;;10.15;1.48;;;;;;;;;;5021371;28;20037;-60
2021/03/16 02:29:33;;;;;;;9.07;0.80;;;;;;;;;;5046020;28;20059;-59
2021/03/16 02:32:01;;;;;;;12.52;1.55;;;;;;;;;;5041933;28;20045;-59
2021/03/16 02:34:28;;;;;;;7.10;0.98;;;;;;;;;;5045098;28;20073;-59
2021/03/16 02:36:54;;;;;;;13.23;1.23;;;;;;;;;;5055002;28;20057;-59
2021/03/16 02:39:21;;;;;;;13.02;1.50;;;;;;;;;;5026215;28;20042;-59
2021/03/16 02:41:50;;;;;;;15.95;1.20;;;;;;;;;;5023291;28;20098;-58
2021/03/16 02:44:16;;;;;;;15.25;1.38;;;;;;;;;;5014896;28;20041;-58
2021/03/16 02:46:44;;;;;;;15.93;1.30;;;;;;;;;;5022946;28;20048;-60
2021/03/16 02:49:12;;;;;;;12.93;1.38;;;;;;;;;;5046814;28;20036;-59
2021/03/16 02:51:38;;;;;;;10.93;1.27;;;;;;;;;;5046197;28;20068;-59
2021/03/16 02:54:05;;;;;;;10.65;1.25;;;;;;;;;;5042966;28;20055;-59
2021/03/16 02:56:33;;;;;;;8.10;1.10;;;;;;;;;;5047699;28;20056;-59
2021/03/16 02:59:00;;;;;;;9.25;1.02;;;;;;;;;;5025321;28;20029;-59
2021/03/16 03:01:27;;;;;;;11.82;1.33;;;;;;;;;;5024208;28;20049;-59
2021/03/16 03:03:55;;;;;;;7.45;1.10;;;;;;;;;;5036550;28;20102;-59
2021/03/16 03:06:22;;;;;;;17.38;1.58;;;;;;;;;;5041646;28;20045;-58
2021/03/16 03:08:48;;;;;;;13.25;1.17;;;;;;;;;;5026850;28;20041;-60
2021/03/16 03:11:15;;;;;;;4.43;0.88;;;;;;;;;;5022394;28;20057;-59
2021/03/16 03:13:41;;;;;;;13.90;1.13;;;;;;;;;;5028881;28;20056;-61
2021/03/16 03:16:07;;;;;;;15.45;1.42;;;;;;;;;;5041018;28;20099;-59
2021/03/16 03:18:33;;;;;;;12.32;1.25;;;;;;;;;;5038465;28;20072;-59
2021/03/16 03:21:01;;;;;;;7.47;0.95;;;;;;;;;;5043540;28;20078;-59
2021/03/16 03:23:28;;;;;;;13.48;1.60;;;;;;;;;;5027578;28;20065;-59
2021/03/16 03:25:56;;;;;;;18.17;1.20;;;;;;;;;;5018235;28;20074;-60
2021/03/16 03:28:24;;;;;;;13.25;1.08;;;;;;;;;;5016425;28;20038;-60
2021/03/16 03:30:53;;;;;;;11.52;1.02;;;;;;;;;;5041091;28;20041;-59
2021/03/16 03:33:19;;;;;;;11.43;1.20;;;;;;;;;;5042886;28;20045;-59
2021/03/16 03:35:45;;;;;;;15.77;1.25;;;;;;;;;;5019624;28;20053;-59
2021/03/16 03:38:13;;;;;;;17.92;1.25;;;;;;;;;;5023451;28;20071;-60
2021/03/16 03:40:40;;;;;;;6.55;1.02;;;;;;;;;;5018443;28;20082;-59
2021/03/16 03:43:08;;;;;;;10.63;1.08;;;;;;;;;;5022302;28;20061;-59
2021/03/16 03:45:34;;;;;;;11.88;1.05;;;;;;;;;;5033040;28;20047;-59
2021/03/16 03:48:02;;;;;;;7.45;0.95;;;;;;;;;;5043822;28;20033;-59
2021/03/16 03:50:28;;;;;;;6.18;1.08;;;;;;;;;;5019829;28;20045;-59
2021/03/16 03:52:54;;;;;;;11.80;1.25;;;;;;;;;;5024616;28;20041;-59
2021/03/16 03:55:21;;;;;;;12.48;1.20;;;;;;;;;;5018193;28;20037;-59
2021/03/16 03:57:50;;;;;;;11.88;1.08;;;;;;;;;;5023382;28;20139;-59
2021/03/16 04:00:17;;;;;;;5.30;0.82;;;;;;;;;;5020430;28;20127;-59
2021/03/16 04:02:44;;;;;;;10.07;1.58;;;;;;;;;;5022670;28;20056;-59
2021/03/16 04:05:12;;;;;;;13.80;1.35;;;;;;;;;;5018100;28;20033;-59
2021/03/16 04:07:39;;;;;;;4.07;0.80;;;;;;;;;;5022009;28;20046;-59
2021/03/16 04:10:06;;;;;;;9.63;1.20;;;;;;;;;;5021024;28;20045;-59
2021/03/16 04:12:34;;;;;;;6.20;1.10;;;;;;;;;;5043487;28;20049;-59
2021/03/16 04:15:00;;;;;;;12.68;1.27;;;;;;;;;;5043599;28;20069;-59
2021/03/16 04:17:27;;;;;;;10.90;1.00;;;;;;;;;;5020175;28;20042;-60
2021/03/16 04:19:54;;;;;;;11.98;1.13;;;;;;;;;;5021578;28;20053;-58
2021/03/16 04:22:20;;;;;;;12.52;1.48;;;;;;;;;;5036857;28;20041;-59
2021/03/16 04:24:46;;;;;;;12.40;1.58;;;;;;;;;;5042258;28;20048;-59
2021/03/16 04:27:13;;;;;;;4.40;0.80;;;;;;;;;;5023614;28;20052;-59
2021/03/16 04:29:40;;;;;;;15.27;1.75;;;;;;;;;;5021417;28;20022;-59
2021/03/16 04:32:06;;;;;;;11.55;1.23;;;;;;;;;;5018985;28;20051;-59
2021/03/16 04:34:32;;;;;;;9.25;1.20;;;;;;;;;;5022916;28;20049;-59
2021/03/16 04:36:58;;;;;;;12.98;1.50;;;;;;;;;;5021620;28;20045;-59
2021/03/16 04:39:24;;;;;;;9.20;1.00;;;;;;;;;;5022881;28;20127;-59
2021/03/16 04:41:50;;;;;;;11.02;1.17;;;;;;;;;;5023360;28;20045;-59
2021/03/16 04:44:17;;;;;;;9.63;1.10;;;;;;;;;;5027661;28;20052;-59
2021/03/16 04:46:45;;;;;;;13.38;1.88;;;;;;;;;;5038261;28;20049;-59
2021/03/16 04:49:11;;;;;;;4.80;0.70;;;;;;;;;;5021723;28;20077;-59
2021/03/16 04:51:37;;;;;;;7.18;1.02;;;;;;;;;;5017786;28;20125;-60
2021/03/16 04:54:03;;;;;;;7.72;1.05;;;;;;;;;;5021841;28;20038;-59
2021/03/16 04:56:29;;;;;;;12.05;0.90;;;;;;;;;;5022235;28;20061;-60
2021/03/16 04:58:55;;;;;;;13.68;1.33;;;;;;;;;;5017378;28;20131;-60
2021/03/16 05:01:21;;;;;;;19.95;1.55;;;;;;;;;;5021588;28;20057;-59
2021/03/16 05:03:48;;;;;;;24.85;2.95;;;;;;;;;;5034010;28;20546;-59
2021/03/16 05:06:14;;;;;;;11.23;1.13;;;;;;;;;;5041466;28;20655;-59
2021/03/16 05:08:40;;;;;;;7.35;0.90;;;;;;;;;;5025828;28;20049;-59
2021/03/16 05:11:06;;;;;;;11.40;1.70;;;;;;;;;;5020083;28;20116;-60
2021/03/16 05:13:32;;;;;;;12.27;1.60;;;;;;;;;;5018791;28;20479;-58
2021/03/16 05:16:01;;;;;;;11.55;1.33;;;;;;;;;;5023372;28;20045;-59
2021/03/16 05:18:30;;;;;;;10.00;1.33;;;;;;;;;;5002654;28;20045;-59
2021/03/16 05:20:57;;;;;;;10.93;1.20;;;;;;;;;;5016280;28;20039;-60
2021/03/16 05:23:23;;;;;;;12.30;1.20;;;;;;;;;;5009929;28;20052;-59
2021/03/16 05:25:49;;;;;;;14.13;2.00;;;;;;;;;;5001988;28;20054;-60
2021/03/16 05:28:17;;;;;;;13.23;1.30;;;;;;;;;;5002915;28;20033;-59
2021/03/16 05:30:43;;;;;;;11.43;1.05;;;;;;;;;;5019757;28;20475;-59
2021/03/16 05:33:09;;;;;;;12.65;1.40;;;;;;;;;;5010818;28;20045;-59
2021/03/16 05:35:35;;;;;;;8.77;1.05;;;;;;;;;;4985457;28;20034;-59
2021/03/16 05:38:07;;;;;;;9.65;1.10;;;;;;;;;;5002843;28;20034;-59
2021/03/16 05:40:33;;;;;;;9.55;1.17;;;;;;;;;;5036665;28;20041;-59
2021/03/16 05:42:59;;;;;;;15.15;1.25;;;;;;;;;;5038549;28;20049;-59
2021/03/16 05:45:26;;;;;;;10.82;1.33;;;;;;;;;;5023767;28;20056;-59
2021/03/16 05:47:52;;;;;;;19.60;1.45;;;;;;;;;;5024500;28;20540;-59
2021/03/16 05:50:19;;;;;;;4.97;0.68;;;;;;;;;;5027112;28;20131;-59
2021/03/16 05:52:45;;;;;;;7.95;1.33;;;;;;;;;;5043650;28;20041;-59
2021/03/16 05:55:13;;;;;;;8.52;1.20;;;;;;;;;;5039291;28;20044;-59
2021/03/16 05:57:39;;;;;;;16.73;1.25;;;;;;;;;;5044619;28;20037;-60
2021/03/16 06:00:06;;;;;;;11.98;1.25;;;;;;;;;;5041651;28;20037;-59
2021/03/16 06:02:32;;;;;;;12.48;1.30;;;;;;;;;;5042272;28;20033;-59
2021/03/16 06:05:00;;;;;;;18.67;1.75;;;;;;;;;;5036021;28;20042;-58
2021/03/16 06:07:30;;;;;;;8.88;1.50;;;;;;;;;;5025729;28;20041;-59
2021/03/16 06:09:56;;;;;;;19.00;1.33;;;;;;;;;;5027917;28;20041;-59
2021/03/16 06:12:30;;;;;;;12.80;1.88;;;;;;;;;;5043455;28;20048;-58
2021/03/16 06:14:56;;;;;;;10.98;1.25;;;;;;;;;;5036721;28;20033;-59
2021/03/16 06:17:23;;;;;;;19.30;1.65;;;;;;;;;;5023003;28;20034;-59
2021/03/16 06:19:49;;;;;;;14.02;1.33;;;;;;;;;;5022332;28;20237;-60
2021/03/16 06:22:18;;;;;;;16.65;1.92;;;;;;;;;;5018996;28;20045;-59
2021/03/16 06:24:45;;;;;;;11.93;1.27;;;;;;;;;;5022123;28;20033;-59
2021/03/16 06:27:20;;;;;;;9.00;1.27;;;;;;;;;;5034978;28;20038;-59
2021/03/16 06:29:49;;;;;;;10.15;1.23;;;;;;;;;;5022296;28;20044;-59
2021/03/16 06:32:16;;;;;;;14.77;1.50;;;;;;;;;;5020678;28;20046;-60
2021/03/16 06:34:42;;;;;;;9.13;1.20;;;;;;;;;;5024972;28;20053;-59
2021/03/16 06:37:08;;;;;;;8.88;1.33;;;;;;;;;;5031929;28;20364;-59
2021/03/16 06:39:35;;;;;;;22.80;3.15;;;;;;;;;;5044841;28;20479;-59
2021/03/16 06:42:01;;;;;;;26.38;5.68;;;;;;;;;;5029359;28;20033;-61
2021/03/16 06:44:27;;;;;;;14.43;2.17;;;;;;;;;;5010679;28;20118;-61
2021/03/16 06:46:55;;;;;;;8.98;1.90;;;;;;;;;;5007345;28;20045;-60
2021/03/16 06:49:22;;;;;;;5.97;1.27;;;;;;;;;;5010754;28;20053;-59
2021/03/16 06:51:49;;;;;;;10.77;1.45;;;;;;;;;;5008554;28;20077;-59
2021/03/16 06:54:16;;;;;;;22.85;2.05;;;;;;;;;;5012313;28;20054;-60
2021/03/16 06:56:50;;;;;;;12.27;1.23;;;;;;;;;;5006511;28;20037;-60
2021/03/16 06:59:20;;;;;;;21.35;1.20;;;;;;;;;;5010359;28;20054;-59
2021/03/16 07:01:46;;;;;;;12.63;1.25;;;;;;;;;;5012652;28;20070;-59
2021/03/16 07:04:13;;;;;;;17.73;1.40;;;;;;;;;;5000454;28;20074;-60
2021/03/16 07:06:39;;;;;;;9.40;1.02;;;;;;;;;;5015057;28;20041;-59
2021/03/16 07:09:06;;;;;;;7.75;1.33;;;;;;;;;;5011759;28;20046;-60
2021/03/16 07:11:34;;;;;;;9.15;0.93;;;;;;;;;;5011961;28;20045;-61
2021/03/16 07:14:00;;;;;;;11.68;1.40;;;;;;;;;;5024776;28;20506;-61
2021/03/16 07:16:26;;;;;;;11.60;1.20;;;;;;;;;;5011630;28;20136;-61
2021/03/16 07:18:53;;;;;;;4.40;1.60;;;;;;;;;;5008165;28;20054;-60
2021/03/16 07:21:24;;;;;;;14.20;1.48;;;;;;;;;;5006261;28;20034;-62
2021/03/16 07:23:51;;;;;;;17.20;1.63;;;;;;;;;;5015981;28;20069;-61
2021/03/16 07:26:17;;;;;;;26.10;1.58;;;;;;;;;;5042550;28;20083;-61
2021/03/16 07:28:44;;;;;;;10.50;1.20;;;;;;;;;;5023015;28;20102;-61
2021/03/16 07:31:10;;;;;;;13.38;1.50;;;;;;;;;;5024686;28;20092;-61
2021/03/16 07:33:37;;;;;;;10.82;1.13;;;;;;;;;;5020559;28;20129;-61
2021/03/16 07:36:03;;;;;;;12.75;1.05;;;;;;;;;;5006875;28;20052;-60
2021/03/16 07:38:30;;;;;;;10.75;1.20;;;;;;;;;;5006668;28;20041;-60
2021/03/16 07:41:00;;;;;;;12.45;1.23;;;;;;;;;;5009016;28;20037;-61
2021/03/16 07:43:33;;;;;;;16.90;1.50;;;;;;;;;;4998289;28;20045;-61
2021/03/16 07:46:12;;;;;;;19.73;1.20;;;;;;;;;;5023564;28;20074;-60
2021/03/16 07:48:41;;;;;;;9.93;1.10;;;;;;;;;;5002397;28;20038;-61
2021/03/16 07:51:11;;;;;;;12.05;2.50;;;;;;;;;;5021866;28;20041;-61
2021/03/16 07:53:39;;;;;;;16.20;1.40;;;;;;;;;;5019071;28;20056;-59
2021/03/16 07:56:06;;;;;;;8.40;1.23;;;;;;;;;;4987119;28;20127;-60
2021/03/16 07:58:42;;;;;;;11.90;1.52;;;;;;;;;;5001781;28;20042;-60
2021/03/16 08:01:08;;;;;;;10.13;0.95;;;;;;;;;;5022401;28;20053;-61
2021/03/16 08:03:34;;;;;;;9.98;1.23;;;;;;;;;;5024486;28;20040;-59
2021/03/16 08:06:00;;;;;;;11.70;1.05;;;;;;;;;;5004575;28;20053;-60
2021/03/16 08:08:26;;;;;;;11.27;1.50;;;;;;;;;;5005949;28;20049;-60
2021/03/16 08:10:53;;;;;;;12.45;1.67;;;;;;;;;;5002715;28;20164;-61
2021/03/16 08:13:21;;;;;;;11.85;1.83;;;;;;;;;;5004020;28;20049;-59
2021/03/16 08:15:48;;;;;;;21.08;1.70;;;;;;;;;;5013825;28;20048;-60
2021/03/16 08:18:26;;;;;;;11.32;1.60;;;;;;;;;;5023221;28;20044;-59
2021/03/16 08:20:52;;;;;;;9.70;1.60;;;;;;;;;;5009367;28;20475;-60
2021/03/16 08:23:18;;;;;;;12.65;1.60;;;;;;;;;;5005595;28;20064;-60
2021/03/16 08:25:47;;;;;;;12.90;1.02;;;;;;;;;;5003032;28;20052;-59
2021/03/16 08:28:13;;;;;;;;;;;;;;;;;;5006779;28;20046;-61
2021/03/16 08:30:40;;;;;;;8.20;1.25;;;;;;;;;;5006342;28;19921;-60
2021/03/16 08:33:13;;;;;;;15.02;1.70;;;;;;;;;;5025694;28;20148;-59
2021/03/16 08:35:43;;;;;;;17.35;1.45;;;;;;;;;;5018056;28;20146;-60
2021/03/16 08:38:09;;;;;;;13.15;1.25;;;;;;;;;;5005827;28;20052;-60
2021/03/16 08:40:35;;;;;;;10.75;1.98;;;;;;;;;;5002408;28;20034;-61
2021/03/16 08:43:07;;;;;;;12.70;1.73;;;;;;;;;;5001754;28;20099;-59
2021/03/16 08:45:34;;;;;;;8.32;1.30;;;;;;;;;;5011828;28;20053;-60
2021/03/16 08:48:01;;;;;;;13.57;1.52;;;;;;;;;;5022050;28;20049;-61
2021/03/16 08:50:30;;;;;;;11.75;2.10;;;;;;;;;;5025562;28;20053;-59
2021/03/16 08:52:56;;;;;;;7.47;1.55;;;;;;;;;;5005601;28;20109;-60
2021/03/16 08:55:23;;;;;;;6.85;1.35;;;;;;;;;;5008281;28;20040;-60
2021/03/16 08:57:51;;;;;;;11.13;1.48;;;;;;;;;;5002509;28;20070;-59
2021/03/16 09:00:17;;;;;;;12.10;1.40;;;;;;;;;;5003651;28;20038;-60
2021/03/16 09:02:43;;;;;;;15.77;1.77;;;;;;;;;;5001948;28;20054;-59
2021/03/16 09:05:18;;;;;;;8.63;1.13;;;;;;;;;;5001229;28;20038;-60
2021/03/16 09:07:44;;;;;;;16.45;1.45;;;;;;;;;;4997457;28;20534;-61
2021/03/16 09:10:12;;;;;;;16.63;1.90;;;;;;;;;;5000522;28;20050;-61
2021/03/16 09:12:41;;;;;;;13.90;1.73;;;;;;;;;;4999138;28;20052;-60
2021/03/16 09:15:11;;;;;;;10.13;1.63;;;;;;;;;;5000453;28;20120;-59
2021/03/16 09:17:39;;;;;;;10.77;1.67;;;;;;;;;;4997240;28;20119;-59
2021/03/16 09:20:09;;;;;;;9.32;1.33;;;;;;;;;;5000603;28;20054;-60
2021/03/16 09:22:36;;;;;;;15.23;1.30;;;;;;;;;;4996834;28;20038;-59
2021/03/16 09:25:03;;;;;;;14.85;1.85;;;;;;;;;;4995001;28;20042;-60
2021/03/16 09:27:29;;;;;;;11.23;1.33;;;;;;;;;;4997223;28;20045;-59
2021/03/16 09:29:55;;;;;;;11.60;1.45;;;;;;;;;;4998931;28;20081;-61
2021/03/16 09:32:22;;;;;;;8.60;1.00;;;;;;;;;;5000490;28;20058;-61
2021/03/16 09:34:48;;;;;;;13.55;1.30;;;;;;;;;;4997207;28;20061;-60
2021/03/16 09:37:15;;;;;;;11.13;1.60;;;;;;;;;;4999828;28;20042;-59
2021/03/16 09:39:51;;;;;;;9.95;1.25;;;;;;;;;;4995960;28;20198;-60
2021/03/16 09:42:17;;;;;;;4.97;0.70;;;;;;;;;;4999125;28;20041;-59
2021/03/16 09:44:45;;;;;;;14.05;1.20;;;;;;;;;;5004092;28;20046;-59
2021/03/16 09:47:11;;;;;;;10.30;1.42;;;;;;;;;;5000188;28;20060;-61
2021/03/16 09:49:38;;;;;;;12.52;1.23;;;;;;;;;;4987030;28;20176;-60
2021/03/16 09:52:05;;;;;;;18.33;1.42;;;;;;;;;;5001227;28;20070;-60
2021/03/16 09:54:35;;;;;;;10.20;1.42;;;;;;;;;;5029532;28;20042;-60
2021/03/16 09:57:05;;;;;;;15.90;1.63;;;;;;;;;;5022647;28;20049;-59
2021/03/16 09:59:33;;;;;;;6.30;0.93;;;;;;;;;;5025078;28;20118;-59
2021/03/16 10:02:01;;;;;;;8.80;1.20;;;;;;;;;;5021850;28;20073;-59
2021/03/16 10:04:27;;;;;;;10.88;1.17;;;;;;;;;;5013544;28;20041;-61
2021/03/16 10:06:56;;;;;;;11.93;1.27;;;;;;;;;;5004780;28;20048;-61
2021/03/16 10:09:25;;;;;;;6.78;1.00;;;;;;;;;;5000324;28;20045;-61
2021/03/16 10:11:52;;;;;;;4.07;0.80;;;;;;;;;;5020255;28;20037;-60
2021/03/16 10:14:25;;;;;;;8.13;1.08;;;;;;;;;;5022109;28;20037;-60
2021/03/16 10:16:53;;;;;;;9.20;0.95;;;;;;;;;;5043944;28;20029;-59
2021/03/16 10:19:20;;;;;;;14.70;1.98;;;;;;;;;;5059497;28;20041;-59
2021/03/16 10:21:46;;;;;;;7.10;1.05;;;;;;;;;;5041554;28;20045;-60
2021/03/16 10:24:12;;;;;;;5.78;0.82;;;;;;;;;;5044194;28;20055;-60
2021/03/16 10:26:39;;;;;;;11.68;1.05;;;;;;;;;;5040252;28;20608;-61
2021/03/16 10:29:11;;;;;;;8.18;1.00;;;;;;;;;;5045390;28;20037;-60
2021/03/16 10:31:38;;;;;;;11.95;1.13;;;;;;;;;;5042583;28;20036;-59
2021/03/16 10:34:04;;;;;;;7.93;0.95;;;;;;;;;;5045958;28;20056;-61
2021/03/16 10:36:34;;;;;;;8.00;0.95;;;;;;;;;;5043282;28;20037;-61
2021/03/16 10:39:01;;;;;;;10.45;1.00;;;;;;;;;;5040798;28;20045;-59
2021/03/16 10:41:27;;;;;;;7.88;1.10;;;;;;;;;;5025287;28;20061;-60
2021/03/16 10:43:53;;;;;;;6.30;0.55;;;;;;;;;;5052951;28;20038;-59
2021/03/16 10:46:20;;;;;;;13.18;1.15;;;;;;;;;;5041989;28;20570;-60
2021/03/16 10:48:47;;;;;;;11.40;1.10;;;;;;;;;;5016625;28;20029;-61
2021/03/16 10:51:13;;;;;;;8.07;1.20;;;;;;;;;;5016272;28;20042;-61
2021/03/16 10:53:39;;;;;;;10.98;1.55;;;;;;;;;;5045257;28;20045;-60
2021/03/16 10:56:05;;;;;;;15.27;1.73;;;;;;;;;;5043027;28;20044;-60
2021/03/16 10:58:32;;;;;;;9.68;1.23;;;;;;;;;;5046244;28;20044;-60
2021/03/16 11:01:01;;;;;;;13.25;1.63;;;;;;;;;;5041912;28;20052;-60
2021/03/16 11:03:27;;;;;;;;;;;;;;;;;;5046797;28;20125;-60
2021/03/16 11:05:53;;;;;;;9.77;1.20;;;;;;;;;;5041051;28;19953;-60
2021/03/16 11:08:20;;;;;;;6.65;1.13;;;;;;;;;;5041048;28;20033;-61
2021/03/16 11:10:46;;;;;;;11.18;1.38;;;;;;;;;;5043572;28;20038;-61
2021/03/16 11:13:13;;;;;;;6.65;1.05;;;;;;;;;;5027160;28;20037;-60
2021/03/16 11:15:39;;;;;;;10.70;1.35;;;;;;;;;;5022358;28;20123;-60
2021/03/16 11:18:07;;;;;;;7.85;1.02;;;;;;;;;;5031708;28;20030;-59
2021/03/16 11:20:40;;;;;;;8.60;1.02;;;;;;;;;;5023343;28;20030;-60
2021/03/16 11:23:07;;;;;;;8.18;1.50;;;;;;;;;;5012584;28;20050;-61
2021/03/16 11:25:33;;;;;;;5.18;1.10;;;;;;;;;;5015255;28;20048;-60
2021/03/16 11:28:00;;;;;;;11.63;1.15;;;;;;;;;;5028956;28;20037;-61
2021/03/16 11:30:29;;;;;;;8.75;1.60;;;;;;;;;;5041242;28;20041;-60
2021/03/16 11:32:55;;;;;;;7.43;1.23;;;;;;;;;;5039315;28;20045;-59
2021/03/16 11:35:22;;;;;;;15.45;1.20;;;;;;;;;;5043380;28;20048;-61
2021/03/16 11:37:49;;;;;;;7.50;1.00;;;;;;;;;;5039341;28;20053;-60
2021/03/16 11:40:16;;;;;;;7.35;1.38;;;;;;;;;;5045682;28;20045;-61
2021/03/16 11:42:42;;;;;;;8.57;1.13;;;;;;;;;;5039905;28;20041;-60
2021/03/16 11:45:11;;;;;;;12.70;1.17;;;;;;;;;;5041244;28;20040;-61
2021/03/16 11:47:38;;;;;;;5.57;0.85;;;;;;;;;;5023009;28;20058;-62
2021/03/16 11:50:04;;;;;;;16.50;1.40;;;;;;;;;;5039272;28;20057;-60
2021/03/16 11:52:30;;;;;;;10.60;1.10;;;;;;;;;;5043123;28;20119;-61
2021/03/16 11:54:56;;;;;;;9.38;1.00;;;;;;;;;;5037674;28;20065;-61
2021/03/16 11:57:23;;;;;;;7.22;0.80;;;;;;;;;;5036195;28;20036;-61
2021/03/16 11:59:50;;;;;;;4.60;1.00;;;;;;;;;;5042211;28;20052;-61
2021/03/16 12:02:16;;;;;;;10.02;1.63;;;;;;;;;;5034076;28;20033;-61
2021/03/16 12:04:42;;;;;;;9.10;1.67;;;;;;;;;;5037859;28;20052;-60
2021/03/16 12:07:11;;;;;;;10.35;1.30;;;;;;;;;;5034144;28;20052;-61
2021/03/16 12:09:37;;;;;;;8.35;1.10;;;;;;;;;;5037878;28;20056;-62
2021/03/16 12:12:03;;;;;;;5.95;0.73;;;;;;;;;;5042007;28;20045;-62
2021/03/16 12:14:30;;;;;;;9.70;1.63;;;;;;;;;;5037512;28;20093;-62
2021/03/16 12:16:56;;;;;;;5.28;0.95;;;;;;;;;;5042044;28;20030;-61
2021/03/16 12:19:24;;;;;;;7.88;1.50;;;;;;;;;;5036715;28;20040;-62
2021/03/16 12:21:50;;;;;;;10.63;1.20;;;;;;;;;;5040889;28;20037;-60
2021/03/16 12:24:17;;;;;;;4.22;1.10;;;;;;;;;;5037450;28;20432;-61
2021/03/16 12:26:46;;;;;;;7.25;1.35;;;;;;;;;;5041164;28;20037;-61
2021/03/16 12:29:14;;;;;;;7.05;1.25;;;;;;;;;;5042941;28;20060;-60
2021/03/16 12:31:41;;;;;;;10.05;1.25;;;;;;;;;;5035717;28;20536;-60
2021/03/16 12:34:07;;;;;;;3.97;0.85;;;;;;;;;;5043491;28;20594;-61
2021/03/16 12:36:35;;;;;;;5.22;0.95;;;;;;;;;;5038491;28;20053;-60
2021/03/16 12:39:01;;;;;;;3.63;1.00;;;;;;;;;;5042664;28;20529;-61
2021/03/16 12:41:27;;;;;;;2.90;0.90;;;;;;;;;;5038114;28;20086;-61
2021/03/16 12:43:54;;;;;;;5.22;1.15;;;;;;;;;;5030435;28;20045;-61
2021/03/16 12:46:20;;;;;;;4.45;1.00;;;;;;;;;;5030478;28;20049;-60
2021/03/16 12:48:47;;;;;;;4.25;0.90;;;;;;;;;;5041619;28;20097;-60
2021/03/16 12:51:13;;;;;;;6.30;1.17;;;;;;;;;;5037262;28;20044;-61
2021/03/16 12:53:40;;;;;;;8.60;1.25;;;;;;;;;;5040970;28;20041;-60
2021/03/16 12:56:07;;;;;;;3.95;0.73;;;;;;;;;;5036814;28;20048;-60
2021/03/16 12:58:33;;;;;;;5.15;0.90;;;;;;;;;;5041678;28;20037;-61
2021/03/16 13:00:59;;;;;;;7.90;1.20;;;;;;;;;;5032678;28;20042;-60
2021/03/16 13:03:27;;;;;;;5.55;1.10;;;;;;;;;;5021369;28;20086;-61
2021/03/16 13:05:54;;;;;;;8.73;1.20;;;;;;;;;;5020117;28;20030;-61
2021/03/16 13:08:20;;;;;;;8.63;0.98;;;;;;;;;;5042198;28;20096;-61
2021/03/16 13:10:46;;;;;;;6.20;1.08;;;;;;;;;;5040978;28;20037;-61
2021/03/16 13:13:12;;;;;;;4.00;0.90;;;;;;;;;;5036169;28;20060;-61
2021/03/16 13:15:39;;;;;;;3.50;1.20;;;;;;;;;;5040492;28;20142;-60
2021/03/16 13:18:05;;;;;;;9.88;2.00;;;;;;;;;;5037893;28;20130;-61
2021/03/16 13:20:31;;;;;;;6.65;1.30;;;;;;;;;;5041900;28;20043;-61
2021/03/16 13:22:58;;;;;;;3.55;0.85;;;;;;;;;;5037916;28;20400;-60
2021/03/16 13:25:25;;;;;;;5.20;0.77;;;;;;;;;;5031755;28;20030;-61
2021/03/16 13:28:01;;;;;;;3.20;0.70;;;;;;;;;;5009421;28;20382;-61
2021/03/16 13:30:28;;;;;;;2.15;0.52;;;;;;;;;;5022136;28;20062;-61
2021/03/16 13:32:54;;;;;;;3.38;0.77;;;;;;;;;;5026993;28;20045;-61
2021/03/16 13:35:20;;;;;;;1.52;0.70;;;;;;;;;;5041265;28;20052;-61
2021/03/16 13:37:46;;;;;;;2.70;0.80;;;;;;;;;;5032562;28;20068;-61
2021/03/16 13:40:14;;;;;;;4.72;1.08;;;;;;;;;;5041299;28;20033;-60
2021/03/16 13:42:41;;;;;;;6.20;0.82;;;;;;;;;;5035023;28;20065;-62
2021/03/16 13:45:07;;;;;;;3.08;1.15;;;;;;;;;;5020505;28;20045;-60
2021/03/16 13:47:33;;;;;;;4.28;0.77;;;;;;;;;;5030044;28;20040;-60
2021/03/16 13:49:59;;;;;;;2.15;0.65;;;;;;;;;;5040517;28;20030;-62
2021/03/16 13:52:25;;;;;;;3.15;0.80;;;;;;;;;;5039284;28;20057;-61
2021/03/16 13:54:51;;;;;;;3.58;0.90;;;;;;;;;;5018679;28;20544;-61
2021/03/16 13:57:19;;;;;;;6.53;0.90;;;;;;;;;;5020327;28;20042;-60
2021/03/16 13:59:45;;;;;;;1.02;0.77;;;;;;;;;;5033944;28;20045;-61
2021/03/16 14:02:12;;;;;;;1.98;0.75;;;;;;;;;;5043244;28;20136;-61
2021/03/16 14:04:40;;;;;;;2.22;0.70;;;;;;;;;;5030144;28;20045;-61
2021/03/16 14:07:06;;;;;;;;;;;;;;;;;;5044314;28;20069;-62
2021/03/16 14:09:33;;;;;;;3.28;0.80;;;;;;;;;;5038330;28;19963;-60
2021/03/16 14:11:59;;;;;;;1.42;0.70;;;;;;;;;;5043138;28;20045;-60
2021/03/16 14:14:26;;;;;;;2.65;0.82;;;;;;;;;;5040222;28;20037;-60
2021/03/16 14:16:52;;;;;;;3.08;0.90;;;;;;;;;;5043365;28;20045;-60
2021/03/16 14:19:18;;;;;;;3.72;0.57;;;;;;;;;;5031343;28;20047;-61
2021/03/16 14:21:44;;;;;;;2.08;0.52;;;;;;;;;;5043288;28;20052;-61
2021/03/16 14:24:10;;;;;;;2.47;0.73;;;;;;;;;;5033481;28;20049;-60
2021/03/16 14:26:36;;;;;;;6.53;0.80;;;;;;;;;;5043637;28;20041;-61
2021/03/16 14:29:03;;;;;;;7.50;0.80;;;;;;;;;;5041632;28;20041;-61
2021/03/16 14:31:29;;;;;;;4.90;1.15;;;;;;;;;;5005510;28;20042;-61
2021/03/16 14:33:56;;;;;;;5.20;1.13;;;;;;;;;;5004667;28;20065;-60
2021/03/16 14:36:22;;;;;;;5.32;1.20;;;;;;;;;;5035281;28;20041;-59